Time;durP1;ratioP1;P1;durP2;ratioP2;P2;SDS_P1;SDS_P2;PMS_P1;PMS_P2;Temp;Humidity;BMP_temperature;BMP_pressure;BME280_temperature;BME280_humidity;BME280_pressure;Samples;Min_cycle;Max_cycle;Signal;HPM_P1;HPM_P2
2022/07/12 12:02:07;;;;;;;8.18;3.47;;;31.50;78.60;;;;;;4686976;28;20210;-72
2022/07/12 12:04:48;;;;;;;6.43;2.88;;;30.90;77.30;;;;;;4997259;28;20096;-72
2022/07/12 12:07:16;;;;;;;5.20;2.80;;;31.00;76.90;;;;;;4986134;28;20037;-71
2022/07/12 12:10:03;;;;;;;9.40;3.58;;;31.30;76.60;;;;;;4993967;28;20080;-72
2022/07/12 12:12:37;;;;;;;4.65;2.55;;;31.30;77.20;;;;;;5002233;28;20069;-71
2022/07/12 12:15:03;;;;;;;;;;;31.30;77.10;;;;;;5007455;28;20125;-72
2022/07/12 12:17:29;;;;;;;5.22;2.33;;;31.40;77.20;;;;;;5004640;28;19918;-72
2022/07/12 12:19:55;;;;;;;5.70;2.63;;;31.80;76.40;;;;;;5007081;28;20538;-72
2022/07/12 12:22:35;;;;;;;7.22;3.00;;;31.60;76.10;;;;;;5007840;28;20384;-72
2022/07/12 12:25:03;;;;;;;4.60;2.28;;;31.30;76.00;;;;;;5007177;28;20103;-72
2022/07/12 12:27:28;;;;;;;4.68;2.65;;;31.40;75.50;;;;;;5007332;28;20396;-72
2022/07/12 12:30:04;;;;;;;11.40;3.30;;;31.20;76.10;;;;;;5005400;28;20038;-72
2022/07/12 12:32:30;;;;;;;8.27;2.78;;;30.80;76.80;;;;;;5006117;28;20031;-72
2022/07/12 12:35:07;;;;;;;4.82;3.10;;;30.80;77.20;;;;;;5007124;28;20037;-72
2022/07/12 12:37:33;;;;;;;3.95;2.45;;;30.70;76.80;;;;;;5007423;28;20498;-72
2022/07/12 12:39:59;;;;;;;7.80;2.40;;;30.50;77.50;;;;;;5006807;28;20034;-72
2022/07/12 12:42:25;;;;;;;4.03;2.53;;;30.50;77.70;;;;;;4999012;28;20034;-72
2022/07/12 12:44:51;;;;;;;4.22;2.45;;;30.40;77.90;;;;;;4996465;28;20072;-73
2022/07/12 12:47:31;;;;;;;5.45;2.38;;;30.40;78.20;;;;;;4984779;28;20751;-72
2022/07/12 12:50:00;;;;;;;5.30;2.75;;;30.20;77.90;;;;;;5013598;28;20029;-72
2022/07/12 12:52:27;;;;;;;4.72;2.65;;;30.30;77.60;;;;;;5014961;28;20036;-72
2022/07/12 12:54:54;;;;;;;6.43;3.00;;;30.30;77.00;;;;;;5017595;28;20384;-73
2022/07/12 12:57:20;;;;;;;4.78;2.45;;;30.20;77.90;;;;;;5012669;28;20034;-72
2022/07/12 12:59:46;;;;;;;3.67;2.15;;;30.80;77.70;;;;;;5006470;28;20041;-71
2022/07/12 13:02:12;;;;;;;5.18;2.08;;;31.40;77.00;;;;;;5005459;28;20076;-70
2022/07/12 13:04:39;;;;;;;4.43;2.10;;;31.20;76.00;;;;;;5009899;28;20048;-71
2022/07/12 13:07:06;;;;;;;5.28;2.63;;;31.20;77.20;;;;;;5012031;28;20021;-70
2022/07/12 13:09:32;;;;;;;5.53;2.17;;;31.60;76.50;;;;;;5011042;28;20033;-71
2022/07/12 13:11:59;;;;;;;10.88;2.85;;;31.70;75.70;;;;;;5013181;28;20612;-70
2022/07/12 13:14:25;;;;;;;5.63;2.38;;;31.30;75.50;;;;;;5009663;28;20112;-70
2022/07/12 13:16:51;;;;;;;3.67;1.88;;;31.50;75.90;;;;;;5018609;28;20148;-70
2022/07/12 13:19:16;;;;;;;8.27;2.50;;;31.50;76.00;;;;;;5009441;28;20116;-70
2022/07/12 13:21:42;;;;;;;6.75;2.65;;;31.50;75.20;;;;;;5013266;28;20034;-70
2022/07/12 13:24:08;;;;;;;3.78;1.88;;;31.20;75.40;;;;;;4999627;28;20022;-71
2022/07/12 13:26:34;;;;;;;4.55;1.92;;;31.30;75.90;;;;;;5002496;28;20132;-71
2022/07/12 13:29:00;;;;;;;6.18;2.60;;;31.40;75.70;;;;;;5012759;28;20128;-70
2022/07/12 13:31:26;;;;;;;3.90;2.08;;;31.80;76.50;;;;;;5011768;28;20129;-71
2022/07/12 13:33:53;;;;;;;5.03;2.03;;;32.10;76.50;;;;;;5009053;28;20369;-70
2022/07/12 13:36:21;;;;;;;5.28;2.30;;;32.20;74.30;;;;;;5009816;28;20541;-71
2022/07/12 13:38:47;;;;;;;6.38;2.15;;;32.10;75.10;;;;;;5012295;28;20132;-70
2022/07/12 13:41:13;;;;;;;6.65;2.25;;;32.10;75.10;;;;;;5015341;28;20025;-71
2022/07/12 13:43:39;;;;;;;14.52;2.20;;;32.00;74.30;;;;;;5020271;28;20036;-71
2022/07/12 13:46:05;;;;;;;6.13;1.90;;;31.80;74.30;;;;;;5017319;28;20056;-71
2022/07/12 13:48:31;;;;;;;4.25;1.60;;;31.40;75.10;;;;;;5019499;28;20610;-71
2022/07/12 13:50:57;;;;;;;7.05;2.17;;;31.50;75.30;;;;;;5005854;28;20083;-70
2022/07/12 13:53:23;;;;;;;4.10;1.90;;;31.60;75.30;;;;;;5013615;28;20026;-70
2022/07/12 13:55:48;;;;;;;4.53;1.95;;;31.60;75.50;;;;;;5009871;28;20354;-71
2022/07/12 13:58:14;;;;;;;7.82;2.05;;;31.70;75.10;;;;;;5010123;28;20025;-71
2022/07/12 14:00:41;;;;;;;5.38;2.00;;;31.50;75.40;;;;;;5013981;28;20117;-71
2022/07/12 14:03:07;;;;;;;4.65;1.90;;;31.20;75.20;;;;;;5010616;28;20056;-71
2022/07/12 14:05:33;;;;;;;4.22;1.67;;;31.10;75.70;;;;;;5006771;28;20033;-71
2022/07/12 14:07:59;;;;;;;4.82;2.00;;;31.40;75.20;;;;;;5004571;28;20060;-71
2022/07/12 14:10:26;;;;;;;6.70;1.92;;;31.30;74.90;;;;;;4999979;28;20034;-72
2022/07/12 14:12:52;;;;;;;4.20;1.75;;;31.60;74.90;;;;;;4999315;28;20117;-72
2022/07/12 14:15:36;;;;;;;11.80;2.20;;;31.70;74.70;;;;;;5010885;28;20491;-71
2022/07/12 14:18:06;;;;;;;7.85;1.90;;;31.20;75.20;;;;;;5012964;28;20043;-72
2022/07/12 14:20:34;;;;;;;8.85;1.70;;;31.50;75.00;;;;;;4997370;28;20084;-71
2022/07/12 14:23:00;;;;;;;3.28;1.80;;;31.50;75.40;;;;;;5012009;28;20042;-71
2022/07/12 14:25:26;;;;;;;3.33;1.33;;;31.60;75.40;;;;;;5012913;28;20076;-71
2022/07/12 14:27:52;;;;;;;5.78;1.65;;;31.50;74.50;;;;;;5020591;28;20091;-71
2022/07/12 14:30:17;;;;;;;2.85;1.50;;;31.80;75.30;;;;;;5016364;28;20033;-71
2022/07/12 14:32:43;;;;;;;3.42;1.55;;;32.00;74.70;;;;;;5015473;28;20038;-71
2022/07/12 14:35:10;;;;;;;4.25;2.00;;;32.10;75.40;;;;;;5017161;28;20029;-71
2022/07/12 14:37:35;;;;;;;3.88;1.83;;;32.00;75.20;;;;;;5017064;28;20052;-71
2022/07/12 14:40:03;;;;;;;3.60;1.50;;;31.40;74.70;;;;;;5003836;28;20181;-72
2022/07/12 14:42:29;;;;;;;6.18;2.13;;;31.60;75.20;;;;;;5003184;28;20492;-70
2022/07/12 14:44:54;;;;;;;3.63;1.85;;;31.80;74.90;;;;;;5006126;28;20036;-71
2022/07/12 14:47:23;;;;;;;3.38;1.60;;;31.70;74.90;;;;;;5018406;28;20057;-70
2022/07/12 14:49:49;;;;;;;6.47;2.10;;;31.40;75.10;;;;;;5011404;28;20045;-70
2022/07/12 14:52:16;;;;;;;5.40;1.60;;;31.30;75.50;;;;;;5015307;28;20500;-70
2022/07/12 14:54:42;;;;;;;6.00;1.70;;;31.70;75.00;;;;;;5013522;28;20026;-71
2022/07/12 14:57:07;;;;;;;3.72;1.95;;;31.80;74.30;;;;;;5018001;28;20025;-71
2022/07/12 14:59:33;;;;;;;6.78;2.05;;;31.80;74.40;;;;;;5017067;28;20037;-70
2022/07/12 15:01:59;;;;;;;4.53;1.77;;;31.50;74.90;;;;;;5017541;28;20084;-70
2022/07/12 15:04:25;;;;;;;3.20;1.40;;;31.50;74.60;;;;;;5013106;28;20512;-71
2022/07/12 15:06:50;;;;;;;8.88;1.70;;;31.50;74.70;;;;;;5010704;28;20033;-70
2022/07/12 15:09:16;;;;;;;6.75;2.03;;;31.10;75.30;;;;;;5011258;28;20041;-70
2022/07/12 15:11:42;;;;;;;3.22;1.67;;;31.10;75.60;;;;;;5020147;28;20088;-71
2022/07/12 15:14:07;;;;;;;5.45;2.78;;;31.30;76.50;;;;;;5005708;28;20092;-71
2022/07/12 15:16:33;;;;;;;3.08;1.67;;;31.40;75.70;;;;;;5003553;28;20034;-70
2022/07/12 15:18:59;;;;;;;3.70;1.58;;;31.20;75.50;;;;;;5001747;28;20104;-71
2022/07/12 15:21:25;;;;;;;3.92;1.50;;;31.20;75.60;;;;;;5004928;28;20037;-70
2022/07/12 15:23:51;;;;;;;5.20;2.10;;;30.70;76.20;;;;;;5008372;28;20061;-70
2022/07/12 15:26:17;;;;;;;2.40;1.33;;;30.60;76.10;;;;;;5021082;28;20476;-70
2022/07/12 15:29:03;;;;;;;5.22;1.35;;;30.80;76.50;;;;;;5010499;28;20069;-70
2022/07/12 15:31:30;;;;;;;6.90;2.40;;;31.20;76.20;;;;;;5007520;28;20030;-71
2022/07/12 15:33:56;;;;;;;3.88;1.80;;;31.00;75.80;;;;;;5024976;28;20384;-70
2022/07/12 15:36:22;;;;;;;4.15;1.75;;;30.80;76.10;;;;;;5014260;28;20120;-70
2022/07/12 15:38:48;;;;;;;5.70;2.28;;;30.70;77.00;;;;;;5017988;28;20530;-70
2022/07/12 15:41:14;;;;;;;4.75;1.80;;;30.50;76.60;;;;;;5019376;28;20033;-70
2022/07/12 15:43:40;;;;;;;4.55;2.15;;;29.90;77.00;;;;;;5006695;28;20053;-71
2022/07/12 15:46:07;;;;;;;4.65;1.80;;;30.00;77.30;;;;;;5011556;28;20120;-70
2022/07/12 15:48:34;;;;;;;3.42;1.65;;;30.20;77.20;;;;;;5015088;28;20036;-70
2022/07/12 15:50:59;;;;;;;7.47;2.22;;;30.10;77.20;;;;;;5013621;28;20041;-70
2022/07/12 15:53:28;;;;;;;4.35;1.80;;;29.80;77.50;;;;;;5008843;28;20030;-70
2022/07/12 15:56:05;;;;;;;4.82;1.77;;;29.60;77.60;;;;;;5010071;28;20061;-71
2022/07/12 15:58:39;;;;;;;7.28;1.80;;;29.60;77.80;;;;;;5018022;28;20041;-70
2022/07/12 16:01:05;;;;;;;7.80;2.00;;;29.50;78.10;;;;;;5024594;28;20084;-70
2022/07/12 16:03:32;;;;;;;4.40;1.88;;;29.40;78.10;;;;;;5016436;28;20030;-71
2022/07/12 16:05:59;;;;;;;3.47;1.85;;;29.30;78.30;;;;;;5025404;28;20028;-71
2022/07/12 16:08:27;;;;;;;4.97;1.98;;;29.50;78.00;;;;;;5009731;28;20077;-70
2022/07/12 16:10:53;;;;;;;4.15;1.52;;;30.00;77.80;;;;;;5011260;28;20436;-70
2022/07/12 16:13:18;;;;;;;3.65;1.40;;;30.20;77.10;;;;;;5011381;28;20029;-71
2022/07/12 16:15:44;;;;;;;4.78;2.30;;;30.40;77.40;;;;;;5019597;28;20415;-70
2022/07/12 16:18:12;;;;;;;5.10;1.73;;;30.60;77.80;;;;;;5007859;28;20042;-71
2022/07/12 16:20:38;;;;;;;6.90;2.28;;;30.60;77.50;;;;;;5018121;28;20037;-71
2022/07/12 16:23:05;;;;;;;3.65;1.73;;;30.70;77.60;;;;;;5011091;28;20030;-70
2022/07/12 16:25:31;;;;;;;5.07;1.70;;;30.20;77.50;;;;;;5001951;28;20104;-71
2022/07/12 16:27:57;;;;;;;7.63;2.00;;;29.70;78.10;;;;;;5001430;28;20034;-71
2022/07/12 16:30:24;;;;;;;6.88;2.45;;;29.40;78.30;;;;;;5011376;28;20069;-71
2022/07/12 16:32:49;;;;;;;4.80;1.83;;;29.20;78.80;;;;;;5016178;28;20579;-71
2022/07/12 16:35:15;;;;;;;4.63;1.67;;;29.40;79.00;;;;;;5010327;28;20033;-70
2022/07/12 16:37:41;;;;;;;4.10;1.80;;;29.60;78.40;;;;;;5024115;28;20041;-70
2022/07/12 16:40:08;;;;;;;3.53;1.77;;;29.90;78.60;;;;;;5024194;28;20036;-71
2022/07/12 16:42:34;;;;;;;6.80;1.98;;;29.70;78.80;;;;;;5011999;28;20080;-71
2022/07/12 16:44:59;;;;;;;4.65;1.80;;;29.70;79.20;;;;;;5005227;28;20033;-71
2022/07/12 16:47:25;;;;;;;4.30;1.40;;;30.00;78.60;;;;;;5021123;28;20474;-72
2022/07/12 16:49:51;;;;;;;3.55;1.63;;;30.10;77.90;;;;;;5009963;28;20057;-70
2022/07/12 16:52:17;;;;;;;6.53;1.70;;;30.00;78.60;;;;;;5011062;28;20129;-72
2022/07/12 16:54:42;;;;;;;4.18;1.90;;;30.00;78.70;;;;;;5008027;28;20025;-70
2022/07/12 16:57:08;;;;;;;2.75;1.65;;;30.00;78.50;;;;;;5012891;28;20030;-71
2022/07/12 16:59:34;;;;;;;3.05;2.08;;;30.10;78.60;;;;;;5008794;28;20041;-71
2022/07/12 17:02:01;;;;;;;4.95;1.90;;;30.20;79.20;;;;;;5013906;28;20045;-72
2022/07/12 17:04:28;;;;;;;5.50;1.90;;;30.20;78.70;;;;;;5016840;28;20030;-71
2022/07/12 17:06:54;;;;;;;6.70;1.67;;;30.30;78.10;;;;;;5020430;28;20033;-72
2022/07/12 17:09:19;;;;;;;4.35;1.65;;;30.20;78.30;;;;;;5006140;28;20525;-72
2022/07/12 17:11:45;;;;;;;5.45;1.92;;;30.40;78.30;;;;;;5010118;28;20475;-71
2022/07/12 17:14:11;;;;;;;3.22;1.60;;;30.30;78.30;;;;;;5007678;28;20030;-71
2022/07/12 17:16:38;;;;;;;4.18;1.73;;;30.30;78.10;;;;;;5011611;28;20033;-72
2022/07/12 17:19:04;;;;;;;3.17;2.03;;;30.20;78.60;;;;;;5007078;28;20074;-72
2022/07/12 17:21:31;;;;;;;7.32;1.85;;;30.20;78.60;;;;;;5001689;28;20030;-71
2022/07/12 17:23:56;;;;;;;3.65;2.28;;;29.80;79.20;;;;;;4997787;28;20038;-72
2022/07/12 17:26:22;;;;;;;4.20;2.00;;;29.60;80.40;;;;;;5011266;28;20021;-71
2022/07/12 17:28:48;;;;;;;4.50;1.88;;;29.30;80.80;;;;;;5007402;28;20097;-71
2022/07/12 17:31:13;;;;;;;5.72;2.03;;;28.70;81.20;;;;;;5006613;28;20551;-70
2022/07/12 17:33:39;;;;;;;5.32;2.13;;;28.60;81.40;;;;;;4998995;28;20029;-71
2022/07/12 17:36:06;;;;;;;4.00;1.70;;;28.60;81.60;;;;;;5003941;28;20034;-70
2022/07/12 17:38:32;;;;;;;5.82;2.38;;;28.40;82.40;;;;;;5008898;28;20152;-71
2022/07/12 17:40:58;;;;;;;5.45;2.00;;;28.30;82.70;;;;;;5013281;28;20072;-71
2022/07/12 17:43:23;;;;;;;4.22;1.73;;;28.30;82.80;;;;;;5009260;28;20034;-70
2022/07/12 17:45:49;;;;;;;5.88;2.10;;;28.10;82.90;;;;;;5011437;28;20101;-70
2022/07/12 17:48:14;;;;;;;6.05;1.88;;;28.20;83.20;;;;;;5013604;28;20057;-69
2022/07/12 17:50:40;;;;;;;6.90;1.98;;;28.10;83.10;;;;;;5002840;28;20041;-70
2022/07/12 17:53:06;;;;;;;6.13;1.83;;;28.00;83.70;;;;;;5009181;28;20410;-70
2022/07/12 17:55:31;;;;;;;4.55;2.10;;;28.00;83.60;;;;;;5020195;28;20672;-70
2022/07/12 18:00:43;;;;;;;3.65;1.60;;;27.70;84.20;;;;;;5012795;28;20161;-70
2022/07/12 18:03:09;;;;;;;6.22;2.20;;;27.70;84.30;;;;;;5023370;28;20037;-70
2022/07/12 18:05:35;;;;;;;7.40;2.45;;;27.60;84.50;;;;;;5018934;28;20037;-70
2022/07/12 18:08:00;;;;;;;5.57;2.15;;;27.50;84.90;;;;;;5024432;28;20034;-70
2022/07/12 18:10:26;;;;;;;4.68;1.95;;;27.20;85.20;;;;;;5018483;28;20175;-70
2022/07/12 18:15:36;;;;;;;;;;;27.10;85.40;;;;;;5018378;28;20537;-70
2022/07/12 18:18:01;;;;;;;5.05;2.10;;;27.10;85.40;;;;;;5018289;28;20015;-70
2022/07/12 18:20:32;;;;;;;4.68;2.42;;;27.10;85.50;;;;;;5013478;28;20059;-69
2022/07/12 18:22:59;;;;;;;4.38;2.30;;;26.90;85.80;;;;;;5018755;28;20592;-70
2022/07/12 18:25:25;;;;;;;3.58;1.85;;;26.70;86.30;;;;;;5020521;28;20383;-69
2022/07/12 18:27:52;;;;;;;3.47;2.25;;;26.80;86.20;;;;;;5019575;28;20075;-70
2022/07/12 18:30:19;;;;;;;5.05;1.92;;;26.80;86.00;;;;;;5016549;28;20032;-70
2022/07/12 18:32:46;;;;;;;5.75;2.20;;;26.80;86.20;;;;;;5016589;28;20064;-70
2022/07/12 18:35:14;;;;;;;4.30;2.28;;;26.70;86.40;;;;;;5014493;28;20029;-70
2022/07/12 18:37:40;;;;;;;8.48;2.28;;;26.70;86.50;;;;;;5016882;28;20048;-70
2022/07/12 18:40:07;;;;;;;3.83;2.10;;;26.60;86.70;;;;;;5013480;28;20040;-70
2022/07/12 18:42:34;;;;;;;5.90;2.40;;;26.50;86.80;;;;;;5017779;28;20038;-69
2022/07/12 18:45:00;;;;;;;3.55;2.08;;;26.50;87.20;;;;;;5012918;28;20037;-70
2022/07/12 18:47:26;;;;;;;3.40;2.00;;;26.50;87.10;;;;;;5018901;28;20041;-70
2022/07/12 18:49:51;;;;;;;4.88;2.03;;;26.50;87.10;;;;;;5018780;28;20028;-70
2022/07/12 18:52:18;;;;;;;5.50;2.05;;;26.40;87.10;;;;;;5014653;28;20036;-69
2022/07/12 18:54:43;;;;;;;7.18;2.83;;;26.30;87.50;;;;;;5009419;28;20037;-69
2022/07/12 18:57:10;;;;;;;7.60;2.55;;;26.30;87.50;;;;;;5019066;28;20064;-69
2022/07/12 18:59:36;;;;;;;12.52;2.55;;;26.10;87.70;;;;;;5012172;28;20080;-69
2022/07/12 19:02:03;;;;;;;4.80;2.22;;;25.90;88.00;;;;;;5017335;28;20123;-70
2022/07/12 19:04:28;;;;;;;9.02;2.53;;;25.90;88.10;;;;;;5014991;28;20105;-70
2022/07/12 19:06:54;;;;;;;6.32;2.28;;;25.90;88.10;;;;;;5013151;28;20140;-70
2022/07/12 19:09:20;;;;;;;6.80;2.67;;;26.00;88.10;;;;;;5016594;28;20033;-70
2022/07/12 19:11:46;;;;;;;3.90;2.17;;;26.00;88.20;;;;;;5013080;28;20682;-70
2022/07/12 19:14:11;;;;;;;6.57;2.40;;;26.00;88.20;;;;;;5017504;28;20160;-70
2022/07/12 19:16:37;;;;;;;4.78;2.05;;;26.00;88.40;;;;;;5020162;28;20056;-70
2022/07/12 19:19:03;;;;;;;5.45;2.90;;;25.90;88.50;;;;;;5014172;28;20045;-70
2022/07/12 19:21:30;;;;;;;5.07;2.15;;;25.90;88.70;;;;;;5013104;28;20056;-70
2022/07/12 19:23:55;;;;;;;4.82;2.20;;;25.80;88.90;;;;;;5014118;28;20108;-70
2022/07/12 19:26:21;;;;;;;5.40;2.20;;;25.70;89.00;;;;;;5013885;28;20610;-70
2022/07/12 19:28:47;;;;;;;5.15;2.72;;;25.70;89.10;;;;;;5018150;28;20033;-70
2022/07/12 19:31:12;;;;;;;5.65;2.53;;;25.60;89.30;;;;;;5013793;28;20112;-70
2022/07/12 19:33:38;;;;;;;4.25;2.13;;;25.70;89.50;;;;;;5017909;28;20030;-70
2022/07/12 19:36:04;;;;;;;5.03;2.60;;;25.50;89.60;;;;;;5015612;28;20098;-70
2022/07/12 19:38:31;;;;;;;4.78;2.63;;;25.50;89.70;;;;;;5013120;28;20034;-70
2022/07/12 19:40:56;;;;;;;6.10;2.40;;;25.60;89.80;;;;;;5017369;28;20106;-70
2022/07/12 19:43:22;;;;;;;4.20;2.25;;;25.50;89.70;;;;;;5011599;28;20504;-70
2022/07/12 19:45:49;;;;;;;6.10;2.42;;;25.40;90.00;;;;;;5014291;28;20044;-70
2022/07/12 19:48:15;;;;;;;7.40;2.17;;;25.20;90.30;;;;;;5012392;28;20033;-70
2022/07/12 19:50:41;;;;;;;4.88;2.28;;;25.00;90.40;;;;;;5005179;28;20033;-70
2022/07/12 19:53:07;;;;;;;5.60;2.20;;;25.10;90.50;;;;;;5013084;28;20060;-70
2022/07/12 19:55:33;;;;;;;4.75;2.33;;;25.10;90.50;;;;;;5017846;28;20025;-69
2022/07/12 19:57:58;;;;;;;4.45;2.40;;;25.00;90.50;;;;;;5014889;28;20045;-70
2022/07/12 20:00:24;;;;;;;6.78;2.97;;;24.80;90.80;;;;;;5017177;28;20622;-69
2022/07/12 20:02:50;;;;;;;4.85;2.42;;;24.70;91.00;;;;;;5011203;28;20037;-70
2022/07/12 20:05:16;;;;;;;5.75;2.28;;;24.60;91.10;;;;;;5013233;28;20546;-70
2022/07/12 20:07:41;;;;;;;4.95;2.17;;;24.50;91.50;;;;;;5015244;28;20029;-70
2022/07/12 20:10:08;;;;;;;5.00;2.72;;;24.40;91.40;;;;;;5018531;28;20117;-70
2022/07/12 20:12:33;;;;;;;4.55;2.15;;;24.20;91.70;;;;;;5006957;28;20026;-70
2022/07/12 20:14:59;;;;;;;5.07;2.20;;;24.10;91.90;;;;;;5012935;28;20018;-70
2022/07/12 20:17:25;;;;;;;4.43;2.17;;;24.10;91.90;;;;;;5005492;28;20038;-69
2022/07/12 20:19:50;;;;;;;3.55;2.15;;;24.10;92.00;;;;;;5010196;28;20041;-70
2022/07/12 20:22:16;;;;;;;6.43;3.00;;;24.10;92.00;;;;;;5009153;28;20026;-69
2022/07/12 20:24:42;;;;;;;4.40;2.78;;;24.10;92.00;;;;;;5016723;28;20393;-70
2022/07/12 20:27:07;;;;;;;6.78;2.60;;;24.10;92.00;;;;;;5012816;28;20040;-69
2022/07/12 20:29:33;;;;;;;5.90;2.50;;;24.00;92.30;;;;;;5018858;28;20061;-69
2022/07/12 20:31:59;;;;;;;4.32;2.30;;;24.10;92.10;;;;;;5012546;28;20380;-69
2022/07/12 20:34:27;;;;;;;6.47;2.58;;;24.00;92.30;;;;;;5014197;28;20508;-70
2022/07/12 20:37:01;;;;;;;4.25;2.33;;;23.90;92.40;;;;;;5011063;28;20029;-70
2022/07/12 20:39:28;;;;;;;8.10;2.65;;;24.00;92.40;;;;;;5014001;28;20539;-69
2022/07/12 20:41:57;;;;;;;4.53;2.47;;;23.90;92.50;;;;;;5013846;28;20117;-70
2022/07/12 20:44:27;;;;;;;5.88;2.90;;;23.80;92.60;;;;;;5014370;28;20025;-69
2022/07/12 20:46:54;;;;;;;5.00;2.55;;;23.60;92.80;;;;;;5017342;28;20036;-69
2022/07/12 20:49:21;;;;;;;4.25;2.47;;;23.50;92.90;;;;;;5008701;28;20037;-69
2022/07/12 20:51:49;;;;;;;5.72;2.30;;;23.50;93.10;;;;;;5007431;28;20033;-70
2022/07/12 20:54:16;;;;;;;6.20;3.10;;;23.30;93.20;;;;;;5009544;28;20455;-70
2022/07/12 20:56:42;;;;;;;5.65;3.05;;;23.40;93.20;;;;;;5010469;28;20678;-69
2022/07/12 20:59:14;;;;;;;6.07;2.83;;;23.30;93.30;;;;;;5008957;28;20500;-69
2022/07/12 21:01:47;;;;;;;5.10;2.75;;;23.30;93.30;;;;;;5014504;28;20128;-69
2022/07/12 21:04:15;;;;;;;5.68;2.50;;;23.30;93.40;;;;;;5009638;28;20026;-69
2022/07/12 21:06:41;;;;;;;6.13;2.70;;;23.20;93.40;;;;;;5014164;28;20044;-69
2022/07/12 21:09:07;;;;;;;5.50;2.78;;;23.20;93.60;;;;;;5009821;28;20041;-69
2022/07/12 21:11:34;;;;;;;4.50;2.53;;;23.10;93.60;;;;;;5015848;28;20033;-69
2022/07/12 21:14:04;;;;;;;6.80;2.75;;;23.10;93.60;;;;;;5019788;28;20029;-69
2022/07/12 21:16:31;;;;;;;4.15;2.65;;;23.20;93.60;;;;;;5016963;28;20043;-69
2022/07/12 21:18:57;;;;;;;4.32;2.63;;;23.10;93.70;;;;;;5011947;28;20041;-69
2022/07/12 21:21:22;;;;;;;5.90;2.85;;;23.10;93.80;;;;;;5015694;28;20128;-70
2022/07/12 21:23:48;;;;;;;4.60;2.63;;;23.00;93.90;;;;;;5019938;28;20510;-70
2022/07/12 21:26:15;;;;;;;3.65;2.20;;;22.90;94.00;;;;;;5013021;28;20038;-70
2022/07/12 21:28:41;;;;;;;5.55;2.85;;;22.90;94.10;;;;;;5003158;28;20030;-70
2022/07/12 21:31:07;;;;;;;7.30;2.88;;;22.70;94.40;;;;;;5005543;28;20045;-72
2022/07/12 21:33:34;;;;;;;4.07;2.50;;;22.60;94.70;;;;;;5009133;28;20072;-70
2022/07/12 21:36:00;;;;;;;5.85;2.75;;;22.70;94.60;;;;;;5013071;28;20014;-69
2022/07/12 21:38:26;;;;;;;4.45;2.67;;;22.80;94.50;;;;;;5018755;28;20045;-70
2022/07/12 21:40:51;;;;;;;6.68;2.53;;;22.80;94.50;;;;;;5020789;28;20026;-70
2022/07/12 21:43:17;;;;;;;6.40;2.75;;;22.80;94.70;;;;;;5006411;28;20726;-69
2022/07/12 21:45:43;;;;;;;4.72;2.45;;;22.70;94.80;;;;;;5015792;28;20033;-70
2022/07/12 21:48:09;;;;;;;6.22;3.13;;;22.80;94.80;;;;;;5016795;28;20493;-69
2022/07/12 21:50:35;;;;;;;3.75;2.30;;;22.80;94.70;;;;;;5013383;28;20060;-69
2022/07/12 21:53:01;;;;;;;5.55;2.40;;;22.70;94.80;;;;;;5019280;28;20417;-70
2022/07/12 21:55:26;;;;;;;7.35;3.63;;;22.70;94.90;;;;;;5022851;28;20030;-69
2022/07/12 21:57:52;;;;;;;3.83;2.80;;;22.70;94.90;;;;;;5013530;28;20046;-70
2022/07/12 22:00:20;;;;;;;4.43;2.90;;;22.80;94.80;;;;;;5020848;28;20064;-69
2022/07/12 22:02:46;;;;;;;6.50;3.10;;;22.80;94.70;;;;;;5018487;28;20629;-69
2022/07/12 22:05:12;;;;;;;4.55;2.50;;;22.80;94.70;;;;;;5017919;28;20556;-70
2022/07/12 22:07:37;;;;;;;5.88;2.30;;;22.70;94.90;;;;;;5015982;28;20109;-70
2022/07/12 22:10:04;;;;;;;5.28;2.55;;;22.70;95.00;;;;;;5024033;28;20101;-70
2022/07/12 22:12:30;;;;;;;5.97;2.63;;;22.60;95.00;;;;;;5010535;28;20120;-70
2022/07/12 22:14:56;;;;;;;6.35;2.50;;;22.70;95.10;;;;;;5013857;28;20159;-69
2022/07/12 22:17:21;;;;;;;3.90;2.40;;;22.60;95.20;;;;;;5018191;28;20090;-70
2022/07/12 22:19:47;;;;;;;5.15;2.63;;;22.70;95.20;;;;;;5013054;28;20033;-69
2022/07/12 22:22:13;;;;;;;7.00;2.60;;;22.60;95.20;;;;;;5022402;28;20026;-69
2022/07/12 22:24:38;;;;;;;5.72;3.03;;;22.60;95.40;;;;;;5022133;28;20033;-69
2022/07/12 22:27:04;;;;;;;4.00;2.42;;;22.60;95.50;;;;;;4993396;28;20034;-69
2022/07/12 22:29:30;;;;;;;5.40;2.83;;;22.50;95.60;;;;;;5013215;28;20029;-69
2022/07/12 22:31:55;;;;;;;5.20;2.92;;;22.60;95.60;;;;;;5021193;28;20617;-69
2022/07/12 22:34:21;;;;;;;5.60;2.80;;;22.50;95.60;;;;;;5019051;28;20034;-69
2022/07/12 22:36:47;;;;;;;4.65;2.63;;;22.50;95.60;;;;;;5013442;28;20037;-69
2022/07/12 22:39:12;;;;;;;5.88;3.03;;;22.40;95.70;;;;;;5013100;28;20120;-70
2022/07/12 22:41:38;;;;;;;5.43;3.05;;;22.30;95.80;;;;;;5021870;28;20075;-70
2022/07/12 22:44:04;;;;;;;5.50;2.92;;;22.40;95.90;;;;;;5011337;28;21265;-70
2022/07/12 22:46:29;;;;;;;5.40;2.47;;;22.50;95.80;;;;;;5021947;28;20038;-70
2022/07/12 22:48:55;;;;;;;4.07;2.50;;;22.30;95.80;;;;;;5006173;28;20533;-69
2022/07/12 22:54:05;;;;;;;3.80;2.70;;;22.20;96.20;;;;;;5010075;28;20085;-70
2022/07/12 22:56:30;;;;;;;6.22;2.33;;;22.10;96.10;;;;;;5023379;28;20053;-69
2022/07/12 22:58:56;;;;;;;4.20;2.75;;;22.10;96.20;;;;;;5016271;28;20037;-70
2022/07/12 23:01:22;;;;;;;4.97;2.65;;;22.00;96.20;;;;;;5016984;28;20041;-69
2022/07/12 23:03:48;;;;;;;6.10;2.80;;;22.00;96.20;;;;;;5026217;28;20040;-70
2022/07/12 23:06:13;;;;;;;5.78;2.60;;;22.10;96.00;;;;;;5021899;28;20428;-70
2022/07/12 23:08:39;;;;;;;3.53;2.38;;;22.20;95.90;;;;;;5020976;28;20060;-70
2022/07/12 23:11:05;;;;;;;4.32;2.28;;;22.20;95.80;;;;;;5021432;28;20811;-70
2022/07/12 23:13:30;;;;;;;6.38;2.75;;;22.10;95.90;;;;;;5023569;28;20038;-70
2022/07/12 23:15:56;;;;;;;6.35;2.47;;;22.00;96.10;;;;;;5021934;28;20438;-70
2022/07/12 23:18:22;;;;;;;6.40;2.60;;;21.90;96.20;;;;;;5016274;28;20038;-70
2022/07/12 23:20:47;;;;;;;5.50;2.78;;;21.90;96.20;;;;;;5030307;28;20033;-70
2022/07/12 23:23:13;;;;;;;4.85;3.05;;;21.80;96.40;;;;;;5017799;28;20040;-70
2022/07/12 23:25:39;;;;;;;4.68;2.60;;;21.80;96.40;;;;;;5026018;28;20065;-70
2022/07/12 23:28:04;;;;;;;4.20;2.70;;;21.90;96.50;;;;;;5016710;28;20184;-72
2022/07/12 23:30:30;;;;;;;4.45;2.65;;;21.90;96.40;;;;;;5024059;28;20095;-72
2022/07/12 23:32:56;;;;;;;5.38;2.58;;;21.90;96.40;;;;;;5018130;28;20033;-70
2022/07/12 23:35:22;;;;;;;5.72;3.05;;;21.80;96.50;;;;;;5025161;28;20480;-70
2022/07/12 23:37:47;;;;;;;6.55;3.05;;;21.80;96.70;;;;;;5016597;28;20041;-70
2022/07/12 23:40:13;;;;;;;6.22;2.80;;;21.80;96.70;;;;;;5023883;28;20109;-70
2022/07/12 23:42:38;;;;;;;5.50;3.00;;;21.80;96.60;;;;;;5014028;28;20041;-70
2022/07/12 23:45:05;;;;;;;5.30;2.50;;;21.80;96.60;;;;;;5016978;28;20092;-70
2022/07/12 23:47:31;;;;;;;6.72;2.72;;;21.80;96.70;;;;;;5017057;28;20041;-70
2022/07/12 23:49:56;;;;;;;6.93;2.90;;;21.80;96.60;;;;;;5022841;28;20032;-70
2022/07/12 23:52:22;;;;;;;4.53;2.55;;;21.80;96.70;;;;;;5019522;28;20029;-70
2022/07/12 23:54:48;;;;;;;5.07;2.47;;;21.80;96.60;;;;;;5020638;28;20116;-70
2022/07/12 23:57:14;;;;;;;4.25;2.42;;;21.90;96.40;;;;;;5018467;28;20033;-70
2022/07/12 23:59:39;;;;;;;7.85;2.80;;;22.00;96.20;;;;;;5014022;28;20038;-70
